| time (UTC) | temp C | wind direction | speed KPH | gust KPH | rain 1hr cm | rain 24hr cm | rain mn cm | humidity % | barometer mb |
| 20260905224500 | 23 | 34 | 0.0 | 0.0 | 1.30 | 1.65 | 1.65 | 90 | 1011.8 |
| 20260905223000 | 23 | 34 | 0.0 | 3.2 | 1.65 | 1.65 | 1.65 | 88 | 1011.7 |
| 20260905221459 | 23 | 38 | 1.6 | 6.4 | 1.65 | 1.65 | 1.65 | 86 | 1012.1 |
| 20260905220008 | 23 | 192 | 3.2 | 16.1 | 1.65 | 1.65 | 1.65 | 83 | 1011.7 |
| 20260905214500 | 28 | 44 | 11.3 | 20.9 | 0.30 | 0.30 | 0.30 | 72 | 1012.5 |
| 20260905213001 | 32 | 267 | 4.8 | 12.9 | 0.00 | 0.00 | 0.00 | 66 | 1011.4 |
| 20260905211459 | 32 | 312 | 3.2 | 12.9 | 0.00 | 0.00 | 0.00 | 68 | 1011.4 |
| 20260905210004 | 32 | 300 | 1.6 | 8.0 | 0.00 | 0.00 | 0.00 | 67 | 1011.2 |
| 20260905204500 | 31 | 268 | 4.8 | 12.9 | 0.00 | 0.00 | 0.00 | 69 | 1011.3 |
| 20260905203000 | 31 | 268 | 6.4 | 12.9 | 0.00 | 0.00 | 0.00 | 69 | 1011.4 |
| 20260905201459 | 32 | 318 | 4.8 | 14.5 | 0.00 | 0.00 | 0.00 | 67 | 1011.7 |
| 20260905200005 | 32 | 309 | 6.4 | 14.5 | 0.00 | 0.00 | 0.00 | 68 | 1011.9 |
| 20260905194459 | 31 | 294 | 6.4 | 19.3 | 0.00 | 0.00 | 0.00 | 67 | 1011.8 |
| 20260905193000 | 32 | 297 | 4.8 | 9.7 | 0.00 | 0.00 | 0.00 | 66 | 1012.2 |
| 20260905191459 | 32 | 296 | 4.8 | 12.9 | 0.00 | 0.00 | 0.00 | 65 | 1012.2 |
| 20260905190004 | 33 | 337 | 3.2 | 9.7 | 0.00 | 0.00 | 0.00 | 64 | 1012.4 |
| 20260905184459 | 33 | 198 | 3.2 | 14.5 | 0.00 | 0.00 | 0.00 | 63 | 1012.5 |
| 20260905183002 | 32 | 297 | 3.2 | 12.9 | 0.00 | 0.00 | 0.00 | 63 | 1012.7 |
| 20260905181459 | 33 | 273 | 4.8 | 16.1 | 0.00 | 0.00 | 0.00 | 62 | 1013.0 |
| 20260905180005 | 33 | 250 | 3.2 | 14.5 | 0.00 | 0.00 | 0.00 | 61 | 1013.0 |
| 20260905174459 | 32 | 205 | 1.6 | 14.5 | 0.00 | 0.00 | 0.00 | 63 | 1013.2 |
| 20260905173000 | 31 | 282 | 6.4 | 12.9 | 0.00 | 0.00 | 0.00 | 63 | 1013.4 |
| 20260905170004 | 31 | 226 | 3.2 | 17.7 | 0.00 | 0.00 | 0.00 | 64 | 1014.0 |
| 20260905164459 | 30 | 191 | 4.8 | 12.9 | 0.00 | 0.00 | 0.00 | 64 | 1014.1 |
| 20260905163001 | 30 | 156 | 4.8 | 11.3 | 0.00 | 0.00 | 0.00 | 67 | 1014.0 |
| 20260905161459 | 29 | 192 | 3.2 | 16.1 | 0.00 | 0.00 | 0.00 | 68 | 1014.0 |
| 20260905154459 | 28 | 242 | 8.0 | 16.1 | 0.00 | 0.00 | 0.00 | 68 | 1014.1 |
| 20260905153001 | 28 | 166 | 9.7 | 20.9 | 0.00 | 0.00 | 0.00 | 69 | 1014.1 |
| 20260905151459 | 27 | 194 | 8.0 | 14.5 | 0.00 | 0.00 | 0.00 | 71 | 1014.0 |
| 20260905150005 | 27 | 217 | 8.0 | 17.7 | 0.00 | 0.00 | 0.00 | 71 | 1014.1 |
| 20260905144459 | 26 | 188 | 4.8 | 12.9 | 0.00 | 0.00 | 0.00 | 74 | 1014.0 |
| 20260905143000 | 25 | 171 | 6.4 | 16.1 | 0.00 | 0.00 | 0.00 | 75 | 1013.9 |
| 20260905141459 | 25 | 175 | 1.6 | 19.3 | 0.00 | 0.00 | 0.00 | 77 | 1013.9 |
| 20260905140007 | 25 | 194 | 6.4 | 19.3 | 0.00 | 0.00 | 0.00 | 78 | 1014.0 |
| 20260905132959 | 23 | 152 | 8.0 | 20.9 | 0.00 | 0.00 | 0.00 | 81 | 1014.1 |
| 20260905131458 | 22 | 194 | 6.4 | 12.9 | 0.00 | 0.00 | 0.00 | 82 | 1014.3 |
| 20260905124458 | 22 | 148 | 6.4 | 11.3 | 0.00 | 0.00 | 0.00 | 85 | 1014.3 |
| 20260905123000 | 21 | 163 | 4.8 | 11.3 | 0.00 | 0.00 | 0.00 | 86 | 1014.3 |
| 20260905121458 | 21 | 124 | 3.2 | 12.9 | 0.00 | 0.00 | 0.00 | 87 | 1014.1 |
| 20260905120002 | 21 | 112 | 1.6 | 8.0 | 0.00 | 0.00 | 0.00 | 87 | 1014.0 |
| 20260905114458 | 21 | 167 | 3.2 | 9.7 | 0.00 | 0.00 | 0.00 | 86 | 1014.0 |
| 20260905113000 | 21 | 186 | 1.6 | 12.9 | 0.00 | 0.00 | 0.00 | 86 | 1014.0 |
| 20260905110004 | 21 | 84 | 4.8 | 14.5 | 0.00 | 0.00 | 0.00 | 86 | 1013.9 |
| 20260905104458 | 21 | 159 | 3.2 | 12.9 | 0.00 | 0.00 | 0.00 | 85 | 1014.0 |
| 20260905102959 | 22 | 81 | 6.4 | 17.7 | 0.00 | 0.00 | 0.00 | 84 | 1014.0 |
| 20260905094458 | 23 | 193 | 0.0 | 1.6 | 0.00 | 0.00 | 0.00 | 89 | 1013.0 |
| 20260905092959 | 24 | 193 | 0.0 | 0.0 | 0.00 | 0.00 | 0.00 | 89 | 1013.1 |
| 20260905091459 | 24 | 193 | 0.0 | 3.2 | 0.00 | 0.00 | 0.00 | 89 | 1013.0 |
| 20260905090004 | 24 | 193 | 0.0 | 0.0 | 0.00 | 0.00 | 0.00 | 88 | 1012.9 |
| 20260905084459 | 24 | 193 | 1.6 | 3.2 | 0.00 | 0.00 | 0.00 | 89 | 1012.8 |
| 20260905081458 | 24 | 193 | 0.0 | 0.0 | 0.00 | 0.00 | 0.00 | 88 | 1012.8 |
| 20260905080004 | 24 | 193 | 0.0 | 1.6 | 0.00 | 0.00 | 0.00 | 88 | 1012.6 |
| 20260905074458 | 25 | 193 | 0.0 | 0.0 | 0.00 | 0.00 | 0.00 | 87 | 1012.5 |
| 20260905072959 | 25 | 193 | 0.0 | 1.6 | 0.00 | 0.00 | 0.00 | 87 | 1012.2 |
| 20260905071458 | 25 | 193 | 0.0 | 0.0 | 0.00 | 0.00 | 0.00 | 88 | 1012.0 |
| 20260905070005 | 25 | 193 | 0.0 | 3.2 | 0.00 | 0.00 | 0.00 | 88 | 1011.6 |
| 20260905062959 | 25 | 193 | 0.0 | 1.6 | 0.00 | 0.00 | 0.00 | 88 | 1012.0 |
| 20260905061458 | 25 | 193 | 0.0 | 0.0 | 0.00 | 0.00 | 0.00 | 88 | 1012.6 |
| 20260905060004 | 25 | 193 | 0.0 | 0.0 | 0.00 | 0.00 | 0.00 | 88 | 1012.7 |
| 20260905054458 | 25 | 193 | 1.6 | 1.6 | 0.00 | 0.00 | 0.00 | 88 | 1012.8 |
| 20260905053000 | 25 | 193 | 0.0 | 0.0 | 0.00 | 0.00 | 0.00 | 88 | 1012.9 |
| 20260905051458 | 26 | 193 | 1.6 | 4.8 | 0.00 | 0.00 | 0.00 | 87 | 1013.1 |
| 20260905050005 | 26 | 193 | 0.0 | 0.0 | 0.00 | 0.00 | 0.00 | 87 | 1013.2 |
| 20260905044502 | 26 | 193 | 0.0 | 0.0 | 0.00 | 0.00 | 0.00 | 87 | 1013.1 |
| 20260905043000 | 26 | 193 | 0.0 | 0.0 | 0.00 | 0.00 | 0.00 | 86 | 1013.3 |
| 20260905041500 | 26 | 193 | 0.0 | 1.6 | 0.00 | 0.00 | 0.00 | 85 | 1013.5 |
| 20260905040006 | 26 | 193 | 0.0 | 0.0 | 0.00 | 0.00 | 0.00 | 85 | 1013.5 |
| 20260905034501 | 26 | 193 | 0.0 | 4.8 | 0.00 | 0.00 | 0.00 | 85 | 1013.5 |
| 20260905033001 | 27 | 184 | 1.6 | 4.8 | 0.00 | 0.00 | 0.00 | 84 | 1013.4 |
| 20260905031500 | 27 | 184 | 0.0 | 3.2 | 0.00 | 0.00 | 0.00 | 84 | 1013.5 |
| 20260905030006 | 27 | 184 | 0.0 | 3.2 | 0.00 | 0.00 | 0.00 | 84 | 1013.6 |
| 20260905024459 | 27 | 184 | 0.0 | 4.8 | 0.00 | 0.00 | 0.00 | 84 | 1013.5 |
| 20260905021500 | 27 | 188 | 3.2 | 4.8 | 0.00 | 0.00 | 0.00 | 83 | 1013.4 |
| 20260905020005 | 28 | 178 | 1.6 | 6.4 | 0.00 | 0.00 | 0.00 | 82 | 1013.4 |
| 20260905014459 | 28 | 178 | 1.6 | 4.8 | 0.00 | 0.00 | 0.00 | 82 | 1013.4 |
| 20260905013000 | 28 | 176 | 3.2 | 6.4 | 0.00 | 0.00 | 0.00 | 81 | 1013.3 |
| 20260905011501 | 28 | 184 | 3.2 | 8.0 | 0.00 | 0.00 | 0.00 | 81 | 1013.3 |
| 20260905004500 | 28 | 196 | 1.6 | 4.8 | 0.00 | 0.00 | 0.00 | 79 | 1013.2 |
| 20260905003001 | 29 | 107 | 1.6 | 3.2 | 0.00 | 0.00 | 0.00 | 78 | 1013.2 |
| 20260905001501 | 29 | 105 | 3.2 | 6.4 | 0.00 | 0.00 | 0.00 | 77 | 1013.1 |
| 20260905000005 | 30 | 110 | 3.2 | 9.7 | 0.00 | 0.00 | 0.00 | 76 | 1013.3 |
| 20260904234459 | 31 | 191 | 4.8 | 9.7 | 0.00 | 0.00 | 0.00 | 76 | 1013.2 |
| 20260904233000 | 31 | 90 | 1.6 | 9.7 | 0.00 | 0.00 | 0.00 | 73 | 1013.2 |
| 20260904231501 | 31 | 113 | 1.6 | 6.4 | 0.00 | 0.00 | 0.00 | 73 | 1013.2 |
| 20260904230004 | 31 | 121 | 1.6 | 9.7 | 0.00 | 0.00 | 0.00 | 73 | 1013.2 |